Time;durP1;ratioP1;P1;durP2;ratioP2;P2;SDS_P1;SDS_P2;PMS_P1;PMS_P2;Temp;Humidity;BMP_temperature;BMP_pressure;BME280_temperature;BME280_humidity;BME280_pressure;Samples;Min_cycle;Max_cycle;Signal;HPM_P1;HPM_P2
2023/03/27 00:08:28;;;;;;;2.37;0.90;;;;;;;18.09;43.48;100990.56;20815256;28;20049;-84
2023/03/27 00:18:32;;;;;;;1.27;0.93;;;;;;;18.17;43.25;101019.53;20818367;28;20048;-84
2023/03/27 00:28:34;;;;;;;1.15;0.73;;;;;;;18.19;43.15;101023.78;20818574;28;20541;-84
2023/03/27 00:38:38;;;;;;;1.83;0.90;;;;;;;18.19;43.05;101045.34;20833746;28;20505;-84
2023/03/27 00:48:41;;;;;;;1.77;0.60;;;;;;;18.15;43.05;101026.91;20817756;28;20072;-84
2023/03/27 00:58:47;;;;;;;1.67;0.73;;;;;;;18.26;43.06;101051.88;20835525;28;20049;-84
2023/03/27 01:08:48;;;;;;;1.73;0.80;;;;;;;18.17;42.85;101041.09;20796512;28;20046;-84
2023/03/27 01:18:52;;;;;;;1.75;0.70;;;;;;;18.31;42.92;101069.47;20829669;28;20073;-84
2023/03/27 01:29:10;;;;;;;1.42;0.60;;;;;;;18.32;42.78;101073.88;20831664;28;20506;-84
2023/03/27 01:39:34;;;;;;;1.30;0.65;;;;;;;18.31;42.98;101081.13;20813840;28;20049;-84
2023/03/27 01:49:42;;;;;;;1.60;0.43;;;;;;;18.23;42.87;101083.66;20814099;28;20050;-84
2023/03/27 02:00:16;;;;;;;0.70;0.50;;;;;;;18.26;42.83;101103.09;20842162;28;20046;-84
2023/03/27 02:10:28;;;;;;;1.65;0.65;;;;;;;18.27;42.79;101112.03;20800000;28;20139;-84
2023/03/27 02:20:32;;;;;;;1.02;0.55;;;;;;;18.26;42.78;101121.13;20775888;28;20050;-83
2023/03/27 02:30:55;;;;;;;2.00;0.63;;;;;;;18.23;42.64;101126.78;20807415;28;20529;-84
2023/03/27 02:41:28;;;;;;;1.35;0.50;;;;;;;18.20;42.65;101135.13;20813585;28;20042;-84
2023/03/27 02:51:53;;;;;;;0.73;0.40;;;;;;;18.18;42.70;101123.63;20807283;28;20061;-84
2023/03/27 03:01:56;;;;;;;2.05;0.50;;;;;;;18.15;42.56;101150.84;20790042;28;20080;-84
2023/03/27 03:12:03;;;;;;;1.10;0.40;;;;;;;18.14;42.67;101187.69;20789616;28;20049;-84
2023/03/27 03:22:12;;;;;;;0.60;0.30;;;;;;;18.10;42.65;101180.84;20804883;28;20107;-84
2023/03/27 03:32:14;;;;;;;1.10;0.47;;;;;;;18.10;42.51;101188.94;20823216;28;20107;-84
2023/03/27 03:42:18;;;;;;;1.73;0.52;;;;;;;18.09;42.54;101204.22;20820211;28;20394;-84
2023/03/27 03:52:26;;;;;;;1.35;0.45;;;;;;;18.00;42.55;101207.69;20835659;28;20046;-84
2023/03/27 04:02:28;;;;;;;0.88;0.60;;;;;;;18.06;42.51;101217.97;20836752;28;20141;-84
2023/03/27 04:12:47;;;;;;;2.00;0.70;;;;;;;18.04;42.51;101230.72;20846778;28;20053;-84
2023/03/27 04:22:55;;;;;;;1.13;0.45;;;;;;;18.04;42.49;101227.19;20819629;28;21050;-84
2023/03/27 04:32:58;;;;;;;1.23;0.40;;;;;;;18.01;42.58;101243.59;20834106;28;20049;-84
2023/03/27 04:43:24;;;;;;;0.43;0.40;;;;;;;17.98;42.44;101260.84;20821240;28;20084;-84
2023/03/27 04:53:29;;;;;;;0.80;0.38;;;;;;;18.00;42.45;101277.72;20818257;28;20072;-84
2023/03/27 05:03:33;;;;;;;1.20;0.60;;;;;;;17.85;42.49;101279.00;20813889;28;20402;-84
2023/03/27 05:13:41;;;;;;;0.57;0.40;;;;;;;17.95;42.62;101280.81;20814934;28;20099;-84
2023/03/27 05:23:45;;;;;;;0.45;0.30;;;;;;;17.95;42.57;101290.72;20829410;28;20053;-84
2023/03/27 05:33:48;;;;;;;1.45;0.50;;;;;;;17.93;42.56;101314.25;20784396;28;20405;-84
2023/03/27 05:43:50;;;;;;;0.93;0.30;;;;;;;17.93;42.74;101327.72;20809352;28;20045;-84
2023/03/27 05:53:54;;;;;;;0.97;0.50;;;;;;;17.91;42.75;101341.31;20838326;28;20060;-85
2023/03/27 06:04:09;;;;;;;1.13;0.50;;;;;;;17.90;42.69;101336.03;20827202;28;20049;-91
2023/03/27 06:14:41;;;;;;;1.85;0.80;;;;;;;17.90;42.64;101362.97;20864280;28;20045;-91
2023/03/27 06:25:04;;;;;;;0.75;0.60;;;;;;;17.87;42.59;101369.47;20815767;28;20041;-94
2023/03/27 06:35:08;;;;;;;1.43;0.50;;;;;;;17.93;42.73;101386.97;20791081;28;20053;-92
2023/03/27 06:45:30;;;;;;;1.70;0.60;;;;;;;17.94;42.60;101394.06;20751512;22;20137;-88
2023/03/27 06:55:52;;;;;;;1.75;0.50;;;;;;;17.94;42.51;101403.03;20711470;28;20494;-85
2023/03/27 07:05:56;;;;;;;1.45;0.50;;;;;;;17.96;42.63;101419.91;20683376;28;20065;-84
2023/03/27 07:16:02;;;;;;;1.75;0.77;;;;;;;17.98;42.51;101435.94;20705034;28;20053;-84
2023/03/27 07:26:07;;;;;;;0.85;0.47;;;;;;;18.00;42.55;101444.75;20694399;28;20038;-82
2023/03/27 07:36:40;;;;;;;0.98;0.45;;;;;;;17.98;42.52;101452.09;20680140;28;20072;-83
2023/03/27 07:46:42;;;;;;;0.85;0.50;;;;;;;17.98;42.83;101452.09;20696218;28;20042;-88
2023/03/27 07:56:44;;;;;;;0.57;0.32;;;;;;;18.00;42.96;101468.16;20686464;28;20042;-86
2023/03/27 08:07:06;;;;;;;1.70;0.63;;;;;;;18.01;43.05;101459.13;20723442;28;20109;-86
2023/03/27 08:17:10;;;;;;;0.85;0.40;;;;;;;17.95;42.90;101463.13;20721320;28;20108;-86
2023/03/27 08:27:17;;;;;;;0.90;0.45;;;;;;;17.90;43.28;101497.66;20722760;28;20489;-86
2023/03/27 08:37:20;;;;;;;1.08;0.40;;;;;;;17.91;43.22;101511.03;20752642;28;20058;-86
2023/03/27 08:48:02;;;;;;;1.08;0.57;;;;;;;17.93;43.40;101521.66;20751718;28;20583;-90
2023/03/27 08:58:16;;;;;;;0.85;0.55;;;;;;;17.90;43.39;101516.50;20760139;28;20054;-89
2023/03/27 09:08:30;;;;;;;1.02;0.40;;;;;;;17.94;43.55;101523.38;20751063;28;20045;-96
2023/03/27 09:18:41;;;;;;;2.78;0.63;;;;;;;17.92;43.48;101538.81;20728923;28;20042;-91
2023/03/27 09:28:56;;;;;;;1.83;0.50;;;;;;;17.66;44.20;101463.59;20757613;28;20107;-90
2023/03/27 09:39:06;;;;;;;1.20;0.75;;;;;;;18.32;44.46;101546.44;20722450;28;20069;-91
2023/03/27 09:49:13;;;;;;;1.70;0.60;;;;;;;18.37;44.68;101554.16;20709765;28;20230;-87
2023/03/27 09:59:31;;;;;;;1.15;0.40;;;;;;;18.46;44.66;101557.94;20674866;28;20482;-88
2023/03/27 10:09:40;;;;;;;0.77;0.32;;;;;;;18.43;44.84;101542.88;20707143;28;20046;-93
2023/03/27 10:19:45;;;;;;;1.03;0.40;;;;;;;18.57;44.89;101555.25;20736488;28;20506;-94
2023/03/27 10:29:48;;;;;;;1.23;0.40;;;;;;;18.59;44.72;101566.78;20692639;28;20088;-87
2023/03/27 10:39:51;;;;;;;0.80;0.40;;;;;;;18.34;44.42;101544.47;20701846;28;20050;-83
2023/03/27 10:50:20;;;;;;;2.63;0.60;;;;;;;18.50;44.51;101607.94;20708639;28;20037;-86
2023/03/27 11:00:35;;;;;;;1.30;0.38;;;;;;;18.39;44.78;101590.78;20694376;28;20056;-87
2023/03/27 11:10:42;;;;;;;1.42;0.50;;;;;;;18.31;44.75;101598.63;20706713;28;20037;-87
2023/03/27 11:20:55;;;;;;;0.73;0.38;;;;;;;18.25;44.88;101593.72;20735896;28;20034;-87
2023/03/27 11:31:45;;;;;;;0.35;0.35;;;;;;;18.18;45.06;101608.69;20709183;28;20042;-87
2023/03/27 11:41:59;;;;;;;1.77;0.43;;;;;;;18.05;45.08;101598.00;20715895;28;20045;-87
2023/03/27 11:52:01;;;;;;;1.38;0.68;;;;;;;18.16;44.84;101629.50;20712141;28;20042;-87
2023/03/27 12:02:26;;;;;;;0.95;0.40;;;;;;;18.15;45.10;101654.72;20735345;28;20565;-87
2023/03/27 12:12:39;;;;;;;1.08;0.32;;;;;;;18.14;45.02;101678.13;20733803;28;20084;-87
2023/03/27 12:23:02;;;;;;;0.80;0.40;;;;;;;18.02;45.09;101663.75;20736135;28;20074;-87
2023/03/27 12:34:30;;;;;;;0.57;0.22;;;;;;;18.09;45.10;101675.75;20734064;28;20057;-87
2023/03/27 12:45:12;;;;;;;0.37;0.20;;;;;;;18.08;45.16;101687.53;20690712;28;20096;-86
2023/03/27 12:55:16;;;;;;;1.40;0.45;;;;;;;18.07;45.07;101669.63;20701839;28;20556;-87
2023/03/27 13:05:57;;;;;;;1.02;0.30;;;;;;;18.06;45.12;101680.56;20717529;28;20053;-87
2023/03/27 13:16:29;;;;;;;0.47;0.35;;;;;;;18.05;44.77;101690.44;20699115;28;20465;-87
2023/03/27 13:26:49;;;;;;;0.85;0.45;;;;;;;18.05;44.86;101711.16;20743456;28;20049;-87
2023/03/27 13:37:13;;;;;;;0.50;0.30;;;;;;;18.02;45.04;101712.25;20724188;28;20050;-87
2023/03/27 13:47:33;;;;;;;0.88;0.40;;;;;;;18.01;44.78;101713.22;20722820;28;20044;-87
2023/03/27 13:58:00;;;;;;;0.70;0.30;;;;;;;18.00;44.73;101713.31;20720784;28;20465;-87
2023/03/27 14:08:25;;;;;;;0.95;0.38;;;;;;;18.00;44.59;101730.34;20739034;28;20060;-94
2023/03/27 14:19:11;;;;;;;0.50;0.35;;;;;;;18.01;44.69;101742.84;20744894;28;20049;-91
2023/03/27 14:29:14;;;;;;;0.82;0.40;;;;;;;18.00;44.42;101776.13;20727628;28;20046;-91
2023/03/27 14:39:22;;;;;;;0.47;0.32;;;;;;;17.82;44.26;101746.94;20733579;28;20069;-90
2023/03/27 14:49:36;;;;;;;2.05;0.60;;;;;;;17.85;44.33;101758.44;20700372;28;20058;-90
2023/03/27 14:59:42;;;;;;;1.73;0.77;;;;;;;17.80;44.21;101762.34;20733677;28;20050;-91
2023/03/27 15:10:04;;;;;;;0.77;0.30;;;;;;;17.77;44.17;101775.16;20714664;28;20073;-91
2023/03/27 15:20:29;;;;;;;1.25;0.50;;;;;;;17.75;44.00;101775.28;20713154;28;20509;-88
2023/03/27 15:30:42;;;;;;;0.73;0.40;;;;;;;17.75;43.93;101780.69;20719652;28;20042;-86
2023/03/27 15:40:45;;;;;;;1.55;0.40;;;;;;;17.74;43.50;101789.72;20699285;28;20650;-90
2023/03/27 15:51:01;;;;;;;1.10;0.63;;;;;;;17.73;43.23;101809.56;20699372;28;20588;-87
2023/03/27 16:01:06;;;;;;;1.77;0.50;;;;;;;17.71;42.99;101811.50;20713271;28;20350;-86
2023/03/27 16:11:41;;;;;;;1.10;0.40;;;;;;;17.70;42.83;101828.63;20699185;28;20058;-87
2023/03/27 16:22:01;;;;;;;2.33;0.50;;;;;;;17.57;42.83;101819.72;20692838;28;20042;-90
2023/03/27 16:32:02;;;;;;;1.48;0.47;;;;;;;17.61;42.85;101861.59;20713220;28;20060;-92
2023/03/27 16:42:04;;;;;;;1.13;0.47;;;;;;;17.61;42.70;101870.56;20712659;28;20050;-84
2023/03/27 16:52:06;;;;;;;1.25;0.40;;;;;;;17.50;42.86;101867.78;20709082;28;20046;-87
2023/03/27 17:02:10;;;;;;;0.68;0.40;;;;;;;17.58;42.91;101886.94;20706455;28;20052;-89
2023/03/27 17:12:12;;;;;;;1.13;0.57;;;;;;;17.57;43.07;101900.50;20679346;28;20439;-84
2023/03/27 17:22:14;;;;;;;1.95;0.50;;;;;;;17.22;43.01;101854.44;20702873;28;20068;-87
2023/03/27 17:32:15;;;;;;;1.30;0.50;;;;;;;16.74;43.21;101795.00;20704657;28;20132;-88
2023/03/27 17:42:17;;;;;;;1.65;0.73;;;;;;;17.51;43.29;101924.19;20705221;28;20042;-90
2023/03/27 17:52:22;;;;;;;1.80;0.68;;;;;;;17.34;43.44;101903.00;20705659;28;20062;-85
2023/03/27 18:02:24;;;;;;;1.80;0.50;;;;;;;17.50;43.67;101940.47;20708010;28;20042;-84
2023/03/27 18:12:25;;;;;;;2.10;0.47;;;;;;;17.49;43.67;101941.44;20723822;28;20494;-85
2023/03/27 18:22:27;;;;;;;1.23;0.70;;;;;;;17.43;43.39;101958.88;20720473;28;20499;-85
2023/03/27 18:32:29;;;;;;;1.63;0.63;;;;;;;17.45;43.67;101962.31;20722030;28;20133;-85
2023/03/27 18:42:31;;;;;;;1.77;0.60;;;;;;;17.41;43.37;101960.81;20710099;28;20559;-86
2023/03/27 18:52:33;;;;;;;1.48;0.68;;;;;;;17.43;43.44;101980.41;20744633;28;20141;-82
2023/03/27 19:02:35;;;;;;;2.17;0.70;;;;;;;17.28;43.49;101979.63;20726493;28;20070;-81
2023/03/27 19:12:37;;;;;;;2.13;0.77;;;;;;;17.40;43.38;101986.00;20738820;28;20448;-82
2023/03/27 19:22:57;;;;;;;1.65;0.70;;;;;;;17.25;43.57;101961.88;20747382;28;20038;-81
2023/03/27 19:33:07;;;;;;;1.88;0.90;;;;;;;17.37;43.63;101978.16;20729285;28;20137;-82
2023/03/27 19:43:09;;;;;;;1.50;0.70;;;;;;;17.33;43.73;101982.88;20736430;28;20057;-82
2023/03/27 19:53:12;;;;;;;2.42;0.80;;;;;;;17.23;43.80;101961.13;20737540;28;20057;-82
2023/03/27 20:03:18;;;;;;;2.33;1.08;;;;;;;17.25;43.90;101972.66;20728436;28;20074;-82
2023/03/27 20:13:20;;;;;;;2.97;0.90;;;;;;;17.34;43.84;101989.13;20737323;28;20080;-82
2023/03/27 20:23:22;;;;;;;1.67;0.73;;;;;;;17.30;43.84;102001.09;20760611;28;20475;-82
2023/03/27 20:33:26;;;;;;;;;;;;;;;17.34;43.89;102019.59;20766045;28;20042;-82
2023/03/27 20:43:29;;;;;;;1.42;0.93;;;;;;;17.30;43.85;102012.69;20752547;28;19922;-82
2023/03/27 20:53:33;;;;;;;1.73;0.82;;;;;;;17.31;43.78;102019.81;20756387;28;20041;-82
2023/03/27 21:03:37;;;;;;;1.63;0.55;;;;;;;17.28;43.66;102011.09;20754393;28;20113;-82
2023/03/27 21:13:39;;;;;;;2.50;1.00;;;;;;;17.31;43.83;102010.88;20755260;28;20068;-82
2023/03/27 21:23:41;;;;;;;2.17;0.93;;;;;;;17.27;43.57;102006.69;20771722;28;20121;-82
2023/03/27 21:33:43;;;;;;;1.77;0.82;;;;;;;17.29;43.69;102021.72;20773278;28;20059;-82
2023/03/27 21:43:45;;;;;;;2.47;0.73;;;;;;;17.16;43.57;102007.41;20759077;28;20045;-82
2023/03/27 21:53:46;;;;;;;2.40;0.82;;;;;;;17.29;43.47;102053.19;20748640;28;20413;-82
2023/03/27 22:03:48;;;;;;;2.58;0.98;;;;;;;17.16;43.61;102048.59;20754771;28;20042;-82
2023/03/27 22:13:50;;;;;;;2.05;0.70;;;;;;;17.27;43.53;102055.13;20757038;28;20391;-82
2023/03/27 22:23:53;;;;;;;1.10;0.77;;;;;;;17.27;43.46;102057.81;20769650;28;20380;-82
2023/03/27 22:33:55;;;;;;;3.35;1.15;;;;;;;17.27;43.43;102065.88;20758502;28;20057;-82
2023/03/27 22:43:59;;;;;;;1.48;0.70;;;;;;;17.25;43.41;102069.53;20761833;28;20042;-82
2023/03/27 22:54:01;;;;;;;2.13;0.95;;;;;;;17.24;43.28;102075.91;20765339;28;20080;-82
2023/03/27 23:04:03;;;;;;;2.97;1.00;;;;;;;17.24;43.42;102083.09;20755142;28;20513;-82
2023/03/27 23:14:05;;;;;;;2.17;0.70;;;;;;;17.22;43.36;102091.25;20745943;28;20054;-82
2023/03/27 23:24:07;;;;;;;2.28;0.85;;;;;;;17.16;43.24;102085.44;20752103;28;20117;-83
2023/03/27 23:34:09;;;;;;;2.65;1.02;;;;;;;17.19;43.21;102091.47;20738951;28;20050;-82
2023/03/27 23:44:11;;;;;;;1.63;0.68;;;;;;;17.21;43.14;102105.66;20746438;28;20090;-82
2023/03/27 23:54:12;;;;;;;1.65;0.70;;;;;;;17.15;43.19;102103.38;20764964;28;20045;-82
